Terminal Aerodrome Forecast
Issued by NWS North Platte, NE

Home | Current Version | Previous Version | Text Only | Print | Product List | Glossary On
Versions: 1 2 3 4 5 6 7 8 9 10 11 12 13 14 15 16
000
FTUS43 KLBF 171100
TAFVTN
TAF
KVTN 171122Z 1712/1812 VRB03KT P6SM VCTS SCT090CB
     FM171400 14010KT P6SM SCT090 PROB30 1721/1803 5SM TSRA BKN070CB
     FM180300 23008KT P6SM SCT200=

USA.gov is the U.S. government's official web portal to all federal, state and local government web resources and services.